createdAt,value
2022-12-22T11:52:29.230Z,94729.78
2022-12-22T11:55:14.010Z,94714.47
2022-12-22T11:57:45.523Z,94719.44
2022-12-22T12:00:16.590Z,94717.03
2022-12-22T12:03:19.932Z,94709.34
2022-12-22T12:06:34.217Z,94701.19
2022-12-22T12:09:19.874Z,94720.03
2022-12-22T12:11:57.618Z,94702.78
2022-12-22T12:14:52.244Z,94701.47
2022-12-22T12:17:18.624Z,94718.31
2022-12-22T12:20:03.138Z,94704.16
2022-12-22T12:22:58.570Z,94711.59
2022-12-22T12:25:37.248Z,94697.78
2022-12-22T12:28:19.429Z,94706.63
2022-12-22T12:31:00.605Z,94708.59
2022-12-22T12:33:54.175Z,94701.69
2022-12-22T12:36:47.825Z,94696.56
2022-12-22T12:39:20.055Z,94697.03
2022-12-22T12:42:08.267Z,94694.06
2022-12-22T12:44:37.386Z,94679.47
2022-12-22T12:47:24.666Z,94698.00
2022-12-22T12:49:52.129Z,94698.84
2022-12-22T12:52:38.613Z,94704.78
2022-12-22T12:55:40.269Z,94698.84
2022-12-22T12:58:11.614Z,94694.72
2022-12-22T13:00:44.977Z,94702.00
2022-12-22T13:06:50.634Z,94721.06
2022-12-22T13:12:53.216Z,94730.03
2022-12-22T13:15:33.277Z,94719.75
2022-12-22T13:18:02.510Z,94709.75
2022-12-22T13:20:35.156Z,94722.75
2022-12-22T13:23:10.306Z,94727.16
2022-12-22T13:25:45.193Z,94733.13
2022-12-22T13:28:17.609Z,94731.41
2022-12-22T13:31:16.691Z,94727.44
2022-12-22T13:33:44.855Z,94735.41
2022-12-22T13:36:25.889Z,94732.34
2022-12-22T13:39:01.186Z,94730.22
2022-12-22T13:41:28.754Z,94725.59
2022-12-22T13:44:06.219Z,94731.41
2022-12-22T13:46:35.211Z,94724.84
2022-12-22T13:49:04.843Z,94718.19
2022-12-22T13:51:35.818Z,94734.06
2022-12-22T13:54:14.353Z,94733.91
2022-12-22T13:56:47.088Z,94720.78
2022-12-22T13:59:33.228Z,94724.38
2022-12-22T14:02:10.316Z,94712.34
2022-12-22T14:04:40.054Z,94730.44
2022-12-22T14:07:18.293Z,94716.63
2022-12-22T14:09:50.319Z,94733.06
2022-12-22T14:12:20.435Z,94737.97
2022-12-22T14:14:49.344Z,94753.69
2022-12-22T14:17:35.387Z,94760.66
2022-12-22T14:20:16.095Z,94748.47
2022-12-22T14:22:51.363Z,94746.03
2022-12-22T14:25:32.779Z,94749.50
2022-12-22T14:28:00.203Z,94760.56
2022-12-22T14:30:41.277Z,94770.31
2022-12-22T14:33:18.084Z,94772.31
2022-12-22T14:35:44.717Z,94770.31
2022-12-22T14:38:23.184Z,94770.72
2022-12-22T14:40:56.446Z,94788.84
2022-12-22T14:43:30.740Z,94768.47
2022-12-22T14:46:04.829Z,94769.22
2022-12-22T14:48:35.302Z,94788.13
2022-12-22T14:51:03.441Z,94782.84
2022-12-22T14:53:52.914Z,94797.00
2022-12-22T14:56:22.453Z,94794.03
2022-12-22T14:58:50.308Z,94808.53
2022-12-22T15:01:23.312Z,94797.72
2022-12-22T15:04:06.551Z,94807.00
2022-12-22T15:06:36.519Z,94809.06
2022-12-22T15:09:11.632Z,94789.84
2022-12-22T15:11:42.210Z,94810.25
2022-12-22T15:14:15.492Z,94808.06
2022-12-22T15:16:42.990Z,94795.88
2022-12-22T15:19:14.233Z,94796.31
2022-12-22T15:21:41.059Z,94800.38
2022-12-22T15:24:17.121Z,94802.81
2022-12-22T15:26:44.755Z,94794.91
2022-12-22T15:29:11.999Z,94800.63
2022-12-22T15:31:40.532Z,94802.97
2022-12-22T15:34:30.668Z,94805.97
2022-12-22T15:36:57.398Z,94804.31
2022-12-22T15:39:24.647Z,94800.03
2022-12-22T15:41:51.383Z,94798.28
2022-12-22T15:44:18.372Z,94813.09
2022-12-22T15:46:53.732Z,94815.53
2022-12-22T15:49:23.631Z,94827.72
2022-12-22T15:51:54.325Z,94806.34
2022-12-22T15:54:21.758Z,94839.44
2022-12-22T15:56:51.492Z,94814.09
2022-12-22T15:59:25.600Z,94817.06
2022-12-22T16:01:58.364Z,94811.53
2022-12-22T16:04:28.631Z,94817.78
2022-12-22T16:06:56.333Z,94838.59
2022-12-22T16:09:31.290Z,94816.22
2022-12-22T16:11:58.336Z,94815.41
2022-12-22T16:14:24.991Z,94818.09
2022-12-22T16:16:51.579Z,94840.69
2022-12-22T16:19:18.901Z,94827.81
2022-12-22T16:21:47.921Z,94844.59
2022-12-22T16:24:26.368Z,94845.66
2022-12-22T16:26:56.710Z,94838.59
2022-12-22T16:29:23.944Z,94840.81
2022-12-22T16:31:50.667Z,94844.78
2022-12-22T16:34:17.303Z,94835.38
2022-12-22T16:36:43.924Z,94854.88
2022-12-22T16:39:10.871Z,94846.66
2022-12-22T16:41:37.556Z,94842.16
2022-12-22T16:44:08.181Z,94845.66
2022-12-22T16:46:38.057Z,94833.38
2022-12-22T16:49:09.795Z,94853.91
2022-12-22T16:51:44.374Z,94852.81
2022-12-22T16:54:16.743Z,94844.13
2022-12-22T16:56:45.473Z,94855.28
2022-12-22T16:59:12.174Z,94860.84
2022-12-22T17:01:43.760Z,94862.63
2022-12-22T17:04:14.435Z,94862.25
2022-12-22T17:06:42.568Z,94877.16
2022-12-22T17:09:20.237Z,94874.69
2022-12-22T17:11:47.395Z,94874.72
2022-12-22T17:14:23.148Z,94873.50
2022-12-22T17:16:50.540Z,94871.22
2022-12-22T17:19:17.168Z,94861.19
2022-12-22T17:21:43.836Z,94863.06
2022-12-22T17:24:15.027Z,94869.00
2022-12-22T17:26:42.341Z,94869.31
2022-12-22T17:29:26.181Z,94873.44
2022-12-22T17:31:56.487Z,94868.88
2022-12-22T17:34:23.273Z,94875.31
2022-12-22T17:36:50.489Z,94860.66
2022-12-22T17:39:23.757Z,94862.38
2022-12-22T17:41:56.186Z,94854.28
2022-12-22T17:44:25.023Z,94861.81
2022-12-22T17:46:51.903Z,94875.88
2022-12-22T17:49:19.955Z,94873.63
2022-12-22T17:51:47.040Z,94877.69
2022-12-22T17:54:29.185Z,94865.16
2022-12-22T17:57:02.611Z,94862.81
2022-12-22T17:59:30.012Z,94857.34
2022-12-22T18:01:56.767Z,94860.09
2022-12-22T18:04:24.708Z,94864.53
2022-12-22T18:06:51.590Z,94857.91
2022-12-22T18:09:25.069Z,94847.00
2022-12-22T18:11:52.999Z,94848.84
2022-12-22T18:14:22.234Z,94853.84
2022-12-22T18:16:48.869Z,94854.38
2022-12-22T18:19:15.477Z,94845.56
2022-12-22T18:21:42.154Z,94844.56
2022-12-22T18:24:16.363Z,94832.66
2022-12-22T18:26:43.359Z,94826.78
2022-12-22T18:29:16.957Z,94830.50
2022-12-22T18:31:44.207Z,94826.88
2022-12-22T18:34:11.799Z,94836.69
2022-12-22T18:36:39.727Z,94836.13
2022-12-22T18:39:08.466Z,94823.97
2022-12-22T18:41:38.423Z,94830.13
2022-12-22T18:44:09.739Z,94819.91
2022-12-22T18:46:36.314Z,94814.00
2022-12-22T18:49:05.850Z,94814.28
2022-12-22T18:51:32.902Z,94808.56
2022-12-22T18:53:59.433Z,94814.69
2022-12-22T18:56:26.009Z,94819.88
2022-12-22T18:58:52.569Z,94815.72
